Time;durP1;ratioP1;P1;durP2;ratioP2;P2;SDS_P1;SDS_P2;PMS_P1;PMS_P2;Temp;Humidity;BMP_temperature;BMP_pressure;BME280_temperature;BME280_humidity;BME280_pressure;Samples;Min_cycle;Max_cycle;Signal;HPM_P1;HPM_P2
2021/10/01 00:06:47;;;;;;;0.40;0.40;;;19.20;99.90;;;;;;20476006;28;20232;-69
2021/10/01 00:16:52;;;;;;;0.20;0.10;;;19.00;99.90;;;;;;20492387;28;20327;-69
2021/10/01 00:26:58;;;;;;;0.77;0.53;;;18.70;99.90;;;;;;20526941;28;20291;-71
2021/10/01 00:37:01;;;;;;;0.70;0.20;;;18.40;99.90;;;;;;20524607;28;20587;-70
2021/10/01 00:47:07;;;;;;;0.27;0.27;;;18.40;99.90;;;;;;20475582;28;20201;-72
2021/10/01 00:57:10;;;;;;;0.23;0.23;;;18.30;99.90;;;;;;20488601;28;20294;-71
2021/10/01 01:07:20;;;;;;;0.33;0.30;;;18.20;99.90;;;;;;20505535;28;20646;-70
2021/10/01 01:17:27;;;;;;;0.20;0.00;;;18.10;99.90;;;;;;20504160;28;20224;-69
2021/10/01 01:27:44;;;;;;;0.20;0.10;;;18.00;99.90;;;;;;20543510;28;20275;-69
2021/10/01 01:37:54;;;;;;;0.30;0.10;;;17.90;99.90;;;;;;20529570;28;20236;-69
2021/10/01 01:47:59;;;;;;;1.03;0.53;;;17.90;99.90;;;;;;20501759;28;20211;-69
2021/10/01 01:58:04;;;;;;;0.20;0.10;;;17.70;99.90;;;;;;20500678;28;20311;-68
2021/10/01 02:08:10;;;;;;;0.20;0.10;;;17.60;99.90;;;;;;20514738;23;20432;-68
2021/10/01 02:18:16;;;;;;;0.93;0.40;;;17.70;99.90;;;;;;20500834;28;20343;-68
2021/10/01 02:28:30;;;;;;;0.20;0.10;;;17.70;99.90;;;;;;20545644;28;20594;-69
2021/10/01 02:38:35;;;;;;;0.63;0.50;;;17.80;99.90;;;;;;20578338;28;20255;-69
2021/10/01 02:48:39;;;;;;;1.27;0.60;;;17.80;99.90;;;;;;20578159;28;20196;-69
2021/10/01 02:58:50;;;;;;;0.20;0.10;;;17.80;99.90;;;;;;20576727;28;20728;-68
2021/10/01 03:08:54;;;;;;;0.20;0.10;;;17.80;99.90;;;;;;20510542;23;20247;-69
2021/10/01 03:19:00;;;;;;;1.77;0.77;;;17.90;99.90;;;;;;20495087;28;20229;-69
2021/10/01 03:29:04;;;;;;;0.20;0.20;;;17.80;99.90;;;;;;20546280;28;20203;-69
2021/10/01 03:39:10;;;;;;;0.37;0.23;;;18.00;99.90;;;;;;20537387;28;20702;-70
2021/10/01 03:49:14;;;;;;;0.20;0.00;;;17.90;99.90;;;;;;20423303;29;20558;-70
2021/10/01 04:09:21;;;;;;;0.30;0.30;;;18.00;99.90;;;;;;20412385;29;20261;-68
2021/10/01 04:19:26;;;;;;;0.80;0.80;;;17.90;99.90;;;;;;20332610;29;20221;-68
2021/10/01 04:29:41;;;;;;;0.37;0.20;;;17.90;99.90;;;;;;20462182;28;20247;-68
2021/10/01 04:39:45;;;;;;;0.30;0.13;;;17.80;99.90;;;;;;20507150;28;20232;-69
2021/10/01 04:49:50;;;;;;;2.00;1.23;;;17.70;99.90;;;;;;20507078;28;20296;-69
2021/10/01 04:59:54;;;;;;;0.40;0.40;;;17.60;99.90;;;;;;20505674;28;20316;-68
2021/10/01 05:09:58;;;;;;;0.30;0.30;;;17.50;99.90;;;;;;20510224;28;20201;-69
2021/10/01 05:20:02;;;;;;;2.60;1.70;;;17.50;99.90;;;;;;20509581;28;20224;-68
2021/10/01 05:30:08;;;;;;;0.30;0.30;;;17.40;99.90;;;;;;20443296;28;20200;-68
2021/10/01 05:40:13;;;;;;;0.53;0.53;;;17.30;99.90;;;;;;20422388;29;20229;-68
2021/10/01 05:50:19;;;;;;;0.50;0.47;;;17.30;99.90;;;;;;20404170;29;20288;-68
2021/10/01 06:00:24;;;;;;;0.80;0.43;;;17.40;99.90;;;;;;20415087;29;20734;-68
2021/10/01 06:10:29;;;;;;;0.43;0.40;;;17.70;99.90;;;;;;20414928;29;20198;-68
2021/10/01 06:20:32;;;;;;;0.53;0.37;;;17.70;99.90;;;;;;20433579;29;20229;-68
2021/10/01 06:30:37;;;;;;;0.20;0.10;;;17.80;99.90;;;;;;20477913;28;20664;-68
2021/10/01 06:40:41;;;;;;;1.53;1.07;;;18.00;99.90;;;;;;20415860;29;20251;-68
2021/10/01 08:24:02;;;;;;;0.30;0.10;;;21.50;99.90;;;;;;20450945;28;20236;-68
2021/10/01 08:34:08;;;;;;;0.30;0.30;;;21.80;99.90;;;;;;20516518;28;20862;-69
2021/10/01 08:44:12;;;;;;;0.30;0.28;;;22.00;99.90;;;;;;20527584;28;20311;-68
2021/10/01 08:54:18;;;;;;;0.20;0.00;;;22.20;99.90;;;;;;20494873;28;20203;-68
2021/10/01 09:04:22;;;;;;;0.20;0.10;;;21.90;99.90;;;;;;20437199;29;20243;-69
2021/10/01 09:14:27;;;;;;;0.93;0.35;;;22.20;99.90;;;;;;20484261;28;20201;-68
2021/10/01 09:24:30;;;;;;;0.20;0.20;;;22.80;99.90;;;;;;20500571;28;20228;-69
2021/10/01 09:34:41;;;;;;;0.20;0.20;;;22.50;99.90;;;;;;20501994;28;20208;-69
2021/10/01 09:44:48;;;;;;;0.20;0.00;;;23.10;99.90;;;;;;20488867;28;20291;-68
2021/10/01 09:55:06;;;;;;;0.20;0.10;;;23.90;99.90;;;;;;20421040;29;20197;-68
2021/10/01 10:05:09;;;;;;;0.60;0.30;;;22.90;99.90;;;;;;20402060;29;20571;-68
2021/10/01 10:15:16;;;;;;;0.20;0.10;;;23.40;99.90;;;;;;20416943;29;20268;-68
2021/10/01 10:25:21;;;;;;;0.30;0.30;;;24.30;99.90;;;;;;20423771;28;20255;-67
2021/10/01 10:35:40;;;;;;;0.20;0.13;;;24.80;99.90;;;;;;20496961;28;20197;-70
2021/10/01 10:45:45;;;;;;;0.20;0.00;;;25.00;99.90;;;;;;20476550;28;20228;-71
2021/10/01 10:55:56;;;;;;;0.22;0.10;;;24.40;99.90;;;;;;20419399;29;20776;-67
2021/10/01 11:06:14;;;;;;;0.20;0.08;;;23.80;99.90;;;;;;20416330;29;20256;-69
2021/10/01 11:16:20;;;;;;;0.50;0.40;;;25.30;99.90;;;;;;20414275;29;20193;-70
2021/10/01 11:26:26;;;;;;;0.35;0.10;;;25.70;99.90;;;;;;20445028;28;20255;-69
2021/10/01 11:36:31;;;;;;;0.88;0.70;;;26.30;99.90;;;;;;20492320;28;20340;-67
2021/10/01 11:46:38;;;;;;;0.20;0.10;;;27.40;99.90;;;;;;20466578;28;20264;-67
2021/10/01 11:56:56;;;;;;;0.20;0.10;;;26.60;99.90;;;;;;20412805;29;20209;-69
2021/10/01 12:07:05;;;;;;;0.20;0.00;;;26.30;99.90;;;;;;20412259;29;20327;-68
2021/10/01 12:17:10;;;;;;;0.73;0.70;;;25.60;99.90;;;;;;20411439;29;20202;-70
2021/10/01 12:27:15;;;;;;;0.43;0.43;;;25.10;99.90;;;;;;20426857;28;20632;-68
2021/10/01 12:37:22;;;;;;;0.90;0.52;;;26.10;99.90;;;;;;20400359;29;20288;-68
2021/10/01 12:47:26;;;;;;;15.48;0.57;;;27.00;99.90;;;;;;20419887;29;20715;-69
2021/10/01 12:57:36;;;;;;;1.80;0.88;;;27.40;99.90;;;;;;20431688;29;20292;-68
2021/10/01 13:07:41;;;;;;;0.30;0.30;;;27.50;99.90;;;;;;20425349;29;20316;-69
2021/10/01 13:18:17;;;;;;;0.85;0.32;;;28.60;99.90;;;;;;20424414;29;20237;-68
2021/10/01 13:28:23;;;;;;;0.85;0.35;;;29.40;99.90;;;;;;20469613;28;20196;-69
2021/10/01 13:38:33;;;;;;;0.30;0.25;;;29.10;99.90;;;;;;20501610;28;20272;-69
2021/10/01 13:48:37;;;;;;;1.52;1.42;;;29.30;99.90;;;;;;20433289;28;20227;-70
2021/10/01 13:58:43;;;;;;;0.63;0.45;;;28.30;99.90;;;;;;20418229;29;20335;-69
2021/10/01 14:08:48;;;;;;;0.20;0.10;;;27.20;99.90;;;;;;20416807;29;20232;-68
2021/10/01 14:19:13;;;;;;;0.75;0.60;;;27.70;99.90;;;;;;20415061;29;20257;-67
2021/10/01 14:29:17;;;;;;;0.30;0.30;;;28.80;99.90;;;;;;20469231;28;20224;-68
2021/10/01 14:39:22;;;;;;;0.20;0.10;;;28.80;99.90;;;;;;20494279;28;20698;-67
2021/10/01 14:49:25;;;;;;;0.20;0.10;;;27.80;99.90;;;;;;20444548;28;20297;-68
2021/10/01 14:59:31;;;;;;;0.20;0.10;;;26.80;99.90;;;;;;20414079;29;20229;-67
2021/10/01 15:09:35;;;;;;;0.20;0.10;;;26.20;99.90;;;;;;20410336;29;20194;-68
2021/10/01 15:19:40;;;;;;;0.47;0.30;;;27.80;99.90;;;;;;20411275;29;20312;-67
2021/10/01 15:30:11;;;;;;;0.40;0.40;;;28.40;99.90;;;;;;20417598;28;20284;-68
2021/10/01 15:40:17;;;;;;;1.85;0.65;;;27.90;99.90;;;;;;20411384;29;20259;-68
2021/10/01 15:50:22;;;;;;;0.30;0.20;;;27.80;99.90;;;;;;20425814;28;20436;-70
2021/10/01 16:00:27;;;;;;;0.55;0.50;;;26.90;99.90;;;;;;20409731;29;20320;-67
2021/10/01 16:10:32;;;;;;;0.38;0.38;;;25.40;99.90;;;;;;20407976;29;20209;-65
2021/10/01 16:20:37;;;;;;;0.20;0.10;;;24.90;99.90;;;;;;20415809;29;20311;-68
2021/10/01 16:30:45;;;;;;;0.28;0.10;;;24.30;99.90;;;;;;20470752;28;20185;-66
2021/10/01 16:40:50;;;;;;;2.00;1.10;;;24.20;99.90;;;;;;20440619;28;20225;-64
2021/10/01 16:50:53;;;;;;;5.93;1.27;;;24.00;99.90;;;;;;20422546;29;20209;-68
2021/10/01 17:00:58;;;;;;;0.38;0.30;;;23.70;99.90;;;;;;20421243;29;20233;-68
2021/10/01 17:11:02;;;;;;;0.52;0.20;;;23.60;99.90;;;;;;20419215;29;20655;-68
2021/10/01 17:21:08;;;;;;;0.20;0.13;;;23.20;99.90;;;;;;20429121;29;20274;-68
2021/10/01 17:31:11;;;;;;;0.43;0.43;;;23.00;99.90;;;;;;20485364;28;20675;-67
2021/10/01 17:41:16;;;;;;;0.95;0.73;;;22.80;99.90;;;;;;20417836;29;20252;-66
2021/10/01 17:51:20;;;;;;;1.38;0.82;;;22.60;99.90;;;;;;20400652;29;20194;-67
2021/10/01 18:01:25;;;;;;;1.50;0.50;;;22.40;99.90;;;;;;20415752;29;20384;-67
2021/10/01 18:11:30;;;;;;;0.20;0.10;;;22.40;99.90;;;;;;20417440;29;20197;-68
2021/10/01 18:21:35;;;;;;;0.23;0.23;;;22.30;99.90;;;;;;20415891;29;20243;-68
2021/10/01 18:31:38;;;;;;;0.50;0.40;;;22.10;99.90;;;;;;20465109;28;20229;-70
2021/10/01 18:41:44;;;;;;;0.20;0.10;;;22.00;99.90;;;;;;20415029;29;20229;-68
2021/10/01 18:51:48;;;;;;;0.43;0.27;;;22.10;99.90;;;;;;20414204;29;20201;-69
2021/10/01 19:01:53;;;;;;;0.20;0.00;;;22.20;99.90;;;;;;20414248;29;20229;-68
2021/10/01 19:11:57;;;;;;;4.32;0.95;;;22.10;99.90;;;;;;20396383;29;20205;-66
2021/10/01 19:22:06;;;;;;;0.60;0.37;;;21.80;99.90;;;;;;20427081;28;20354;-69
2021/10/01 19:32:10;;;;;;;11.63;0.77;;;21.40;99.90;;;;;;20476894;28;20193;-67
2021/10/01 19:42:15;;;;;;;1.43;0.40;;;21.10;99.90;;;;;;20410998;29;20228;-68
2021/10/01 19:52:19;;;;;;;0.20;0.13;;;21.10;99.90;;;;;;20409581;29;20233;-67
2021/10/01 20:02:27;;;;;;;0.20;0.10;;;21.00;99.90;;;;;;20408013;29;20336;-68
2021/10/01 20:12:31;;;;;;;0.27;0.20;;;21.00;99.90;;;;;;20392799;29;20614;-67
2021/10/01 20:22:53;;;;;;;0.67;0.57;;;20.90;99.90;;;;;;20395759;29;20352;-68
2021/10/01 20:53:49;;;;;;;0.20;0.20;;;20.80;99.90;;;;;;20416864;29;20225;-68
2021/10/01 21:45:32;;;;;;;0.20;0.13;;;20.80;99.90;;;;;;20350350;29;20225;-67
2021/10/01 21:55:37;;;;;;;0.33;0.23;;;20.70;99.90;;;;;;20421098;29;20197;-68
2021/10/01 22:20:00;;;;;;;0.20;0.10;;;20.40;99.90;;;;;;20411314;29;20194;-68
2021/10/01 22:26:40;;;;;;;2.00;0.77;;;20.20;99.90;;;;;;20418959;29;20219;-68
2021/10/01 22:36:44;;;;;;;0.30;0.30;;;19.90;99.90;;;;;;20418289;29;20229;-68
2021/10/01 22:46:49;;;;;;;0.67;0.67;;;20.00;99.90;;;;;;20418439;29;20221;-69
2021/10/01 22:56:53;;;;;;;0.20;0.00;;;19.70;99.90;;;;;;20418005;29;20707;-68
2021/10/01 23:06:59;;;;;;;0.20;0.20;;;19.70;99.90;;;;;;20417734;29;20242;-68
2021/10/01 23:17:16;;;;;;;0.83;0.40;;;19.50;99.90;;;;;;20416401;29;20198;-68
